sensor_id;sensor_type;location;lat;lon;timestamp;temperature;humidity
30244;DHT22;64022;53.652;9.792;2024-01-30T00:00:31;21.90;53.50
30244;DHT22;64022;53.652;9.792;2024-01-30T00:03:00;22.00;53.50
30244;DHT22;64022;53.652;9.792;2024-01-30T00:05:27;21.90;53.30
30244;DHT22;64022;53.652;9.792;2024-01-30T00:07:57;21.90;53.50
30244;DHT22;64022;53.652;9.792;2024-01-30T00:10:24;22.00;53.50
30244;DHT22;64022;53.652;9.792;2024-01-30T00:12:50;21.90;54.00
30244;DHT22;64022;53.652;9.792;2024-01-30T00:15:16;22.00;53.60
30244;DHT22;64022;53.652;9.792;2024-01-30T00:17:43;21.90;53.50
30244;DHT22;64022;53.652;9.792;2024-01-30T00:20:10;22.00;53.50
30244;DHT22;64022;53.652;9.792;2024-01-30T00:22:36;21.90;53.30
30244;DHT22;64022;53.652;9.792;2024-01-30T00:25:02;21.90;53.40
30244;DHT22;64022;53.652;9.792;2024-01-30T00:27:28;21.90;53.40
30244;DHT22;64022;53.652;9.792;2024-01-30T00:29:55;21.90;53.40
30244;DHT22;64022;53.652;9.792;2024-01-30T00:32:22;21.90;53.30
30244;DHT22;64022;53.652;9.792;2024-01-30T00:34:49;21.90;53.40
30244;DHT22;64022;53.652;9.792;2024-01-30T00:37:16;21.90;53.30
30244;DHT22;64022;53.652;9.792;2024-01-30T00:39:44;21.90;53.20
30244;DHT22;64022;53.652;9.792;2024-01-30T00:42:10;21.90;53.30
30244;DHT22;64022;53.652;9.792;2024-01-30T00:44:38;21.90;53.20
30244;DHT22;64022;53.652;9.792;2024-01-30T00:47:04;21.90;53.30
30244;DHT22;64022;53.652;9.792;2024-01-30T00:49:31;21.90;53.20
30244;DHT22;64022;53.652;9.792;2024-01-30T00:51:57;21.90;53.20
30244;DHT22;64022;53.652;9.792;2024-01-30T00:54:24;21.90;53.30
30244;DHT22;64022;53.652;9.792;2024-01-30T00:56:57;21.90;53.20
30244;DHT22;64022;53.652;9.792;2024-01-30T00:59:24;21.90;53.20
30244;DHT22;64022;53.652;9.792;2024-01-30T01:01:51;21.90;53.40
30244;DHT22;64022;53.652;9.792;2024-01-30T01:04:21;21.90;53.30
30244;DHT22;64022;53.652;9.792;2024-01-30T01:06:48;21.90;53.20
30244;DHT22;64022;53.652;9.792;2024-01-30T01:09:14;21.90;53.20
30244;DHT22;64022;53.652;9.792;2024-01-30T01:11:40;21.90;53.10
30244;DHT22;64022;53.652;9.792;2024-01-30T01:14:06;21.90;53.20
30244;DHT22;64022;53.652;9.792;2024-01-30T01:16:32;21.90;53.20
30244;DHT22;64022;53.652;9.792;2024-01-30T01:18:59;21.90;53.30
30244;DHT22;64022;53.652;9.792;2024-01-30T01:21:27;21.90;53.30
30244;DHT22;64022;53.652;9.792;2024-01-30T01:23:53;21.90;53.20
30244;DHT22;64022;53.652;9.792;2024-01-30T01:26:19;21.90;53.20
30244;DHT22;64022;53.652;9.792;2024-01-30T01:28:45;21.90;53.20
30244;DHT22;64022;53.652;9.792;2024-01-30T01:31:12;21.90;53.30
30244;DHT22;64022;53.652;9.792;2024-01-30T01:33:39;21.90;53.40
30244;DHT22;64022;53.652;9.792;2024-01-30T01:36:08;21.90;53.20
30244;DHT22;64022;53.652;9.792;2024-01-30T01:38:34;21.90;53.30
30244;DHT22;64022;53.652;9.792;2024-01-30T01:41:00;21.90;53.30
30244;DHT22;64022;53.652;9.792;2024-01-30T01:43:28;21.90;53.40
30244;DHT22;64022;53.652;9.792;2024-01-30T01:45:54;21.90;53.40
30244;DHT22;64022;53.652;9.792;2024-01-30T01:48:25;21.90;53.30
30244;DHT22;64022;53.652;9.792;2024-01-30T01:50:52;21.90;53.50
30244;DHT22;64022;53.652;9.792;2024-01-30T01:53:18;21.90;53.20
30244;DHT22;64022;53.652;9.792;2024-01-30T01:55:45;21.90;53.20
30244;DHT22;64022;53.652;9.792;2024-01-30T01:58:13;21.90;53.20
30244;DHT22;64022;53.652;9.792;2024-01-30T02:00:44;21.90;53.20
30244;DHT22;64022;53.652;9.792;2024-01-30T02:03:11;21.90;53.30
30244;DHT22;64022;53.652;9.792;2024-01-30T02:05:41;21.90;53.30
30244;DHT22;64022;53.652;9.792;2024-01-30T02:08:07;21.90;53.30
30244;DHT22;64022;53.652;9.792;2024-01-30T02:10:38;22.00;53.90
30244;DHT22;64022;53.652;9.792;2024-01-30T02:13:05;21.90;53.20
30244;DHT22;64022;53.652;9.792;2024-01-30T02:15:33;21.90;53.20
30244;DHT22;64022;53.652;9.792;2024-01-30T02:18:00;21.90;53.20
30244;DHT22;64022;53.652;9.792;2024-01-30T02:20:26;21.90;53.30
30244;DHT22;64022;53.652;9.792;2024-01-30T02:22:54;21.90;53.20
30244;DHT22;64022;53.652;9.792;2024-01-30T02:25:44;21.90;53.30
30244;DHT22;64022;53.652;9.792;2024-01-30T02:28:13;21.90;53.50
30244;DHT22;64022;53.652;9.792;2024-01-30T02:30:40;21.90;53.50
30244;DHT22;64022;53.652;9.792;2024-01-30T02:33:08;22.00;53.30
30244;DHT22;64022;53.652;9.792;2024-01-30T02:35:39;21.90;53.30
30244;DHT22;64022;53.652;9.792;2024-01-30T02:38:04;21.90;53.30
30244;DHT22;64022;53.652;9.792;2024-01-30T02:40:33;21.90;53.30
30244;DHT22;64022;53.652;9.792;2024-01-30T02:42:59;21.90;53.30
30244;DHT22;64022;53.652;9.792;2024-01-30T02:45:27;21.90;53.20
30244;DHT22;64022;53.652;9.792;2024-01-30T02:47:53;21.90;53.20
30244;DHT22;64022;53.652;9.792;2024-01-30T02:50:19;21.90;53.10
30244;DHT22;64022;53.652;9.792;2024-01-30T02:52:48;21.90;53.10
30244;DHT22;64022;53.652;9.792;2024-01-30T02:55:13;21.90;53.20
30244;DHT22;64022;53.652;9.792;2024-01-30T02:57:41;21.90;53.20
30244;DHT22;64022;53.652;9.792;2024-01-30T03:00:07;21.90;53.10
30244;DHT22;64022;53.652;9.792;2024-01-30T03:02:38;21.90;53.10
30244;DHT22;64022;53.652;9.792;2024-01-30T03:05:05;21.90;53.10
30244;DHT22;64022;53.652;9.792;2024-01-30T03:07:31;21.90;53.10
30244;DHT22;64022;53.652;9.792;2024-01-30T03:09:58;21.90;53.10
30244;DHT22;64022;53.652;9.792;2024-01-30T03:12:25;21.90;53.00
30244;DHT22;64022;53.652;9.792;2024-01-30T03:14:50;21.90;52.90
30244;DHT22;64022;53.652;9.792;2024-01-30T03:17:18;21.90;52.90
30244;DHT22;64022;53.652;9.792;2024-01-30T03:19:44;21.90;52.90
30244;DHT22;64022;53.652;9.792;2024-01-30T03:22:11;21.90;52.90
30244;DHT22;64022;53.652;9.792;2024-01-30T03:24:38;21.90;53.00
30244;DHT22;64022;53.652;9.792;2024-01-30T03:27:06;21.90;52.90
30244;DHT22;64022;53.652;9.792;2024-01-30T03:29:33;21.90;52.90
30244;DHT22;64022;53.652;9.792;2024-01-30T03:32:00;22.00;52.90
30244;DHT22;64022;53.652;9.792;2024-01-30T03:34:26;21.90;52.90
30244;DHT22;64022;53.652;9.792;2024-01-30T03:36:52;21.90;52.90
30244;DHT22;64022;53.652;9.792;2024-01-30T03:39:21;21.90;53.00
30244;DHT22;64022;53.652;9.792;2024-01-30T03:41:50;21.90;53.00
30244;DHT22;64022;53.652;9.792;2024-01-30T03:44:16;21.90;52.90
30244;DHT22;64022;53.652;9.792;2024-01-30T03:46:43;21.90;52.90
30244;DHT22;64022;53.652;9.792;2024-01-30T03:49:09;21.90;52.90
30244;DHT22;64022;53.652;9.792;2024-01-30T03:51:35;21.90;53.00
30244;DHT22;64022;53.652;9.792;2024-01-30T03:54:05;21.90;52.90
30244;DHT22;64022;53.652;9.792;2024-01-30T03:56:37;21.90;52.90
30244;DHT22;64022;53.652;9.792;2024-01-30T03:59:03;21.90;53.00
30244;DHT22;64022;53.652;9.792;2024-01-30T04:01:29;21.90;53.00
30244;DHT22;64022;53.652;9.792;2024-01-30T04:03:55;21.90;53.00
30244;DHT22;64022;53.652;9.792;2024-01-30T04:06:21;21.90;53.00
30244;DHT22;64022;53.652;9.792;2024-01-30T04:08:47;21.90;52.70
30244;DHT22;64022;53.652;9.792;2024-01-30T04:11:19;21.90;52.90
30244;DHT22;64022;53.652;9.792;2024-01-30T04:13:46;21.90;53.00
30244;DHT22;64022;53.652;9.792;2024-01-30T04:16:20;21.90;53.00
30244;DHT22;64022;53.652;9.792;2024-01-30T04:18:50;21.90;53.00
30244;DHT22;64022;53.652;9.792;2024-01-30T04:21:18;21.90;53.00
30244;DHT22;64022;53.652;9.792;2024-01-30T04:23:45;21.90;53.00
30244;DHT22;64022;53.652;9.792;2024-01-30T04:26:15;21.90;52.80
30244;DHT22;64022;53.652;9.792;2024-01-30T04:28:41;21.90;52.90
30244;DHT22;64022;53.652;9.792;2024-01-30T04:31:07;21.90;53.00
30244;DHT22;64022;53.652;9.792;2024-01-30T04:33:34;21.90;52.90
30244;DHT22;64022;53.652;9.792;2024-01-30T04:36:00;21.90;53.00
30244;DHT22;64022;53.652;9.792;2024-01-30T04:38:26;21.90;53.00
30244;DHT22;64022;53.652;9.792;2024-01-30T04:40:55;21.90;52.90
30244;DHT22;64022;53.652;9.792;2024-01-30T04:43:21;21.90;53.50
30244;DHT22;64022;53.652;9.792;2024-01-30T04:45:49;21.90;52.90
30244;DHT22;64022;53.652;9.792;2024-01-30T04:48:16;21.90;53.00
30244;DHT22;64022;53.652;9.792;2024-01-30T04:50:43;22.00;53.00
30244;DHT22;64022;53.652;9.792;2024-01-30T04:53:11;22.00;52.90
30244;DHT22;64022;53.652;9.792;2024-01-30T04:55:38;21.90;53.10
30244;DHT22;64022;53.652;9.792;2024-01-30T04:58:04;21.90;53.10
30244;DHT22;64022;53.652;9.792;2024-01-30T05:00:30;21.90;52.90
30244;DHT22;64022;53.652;9.792;2024-01-30T05:02:56;21.90;52.90
30244;DHT22;64022;53.652;9.792;2024-01-30T05:05:26;21.90;53.00
30244;DHT22;64022;53.652;9.792;2024-01-30T05:07:54;21.90;53.10
30244;DHT22;64022;53.652;9.792;2024-01-30T05:10:20;21.90;53.00
30244;DHT22;64022;53.652;9.792;2024-01-30T05:12:46;22.00;53.10
30244;DHT22;64022;53.652;9.792;2024-01-30T05:15:12;22.00;53.20
30244;DHT22;64022;53.652;9.792;2024-01-30T05:17:40;22.00;53.20
30244;DHT22;64022;53.652;9.792;2024-01-30T05:20:07;22.00;53.20
30244;DHT22;64022;53.652;9.792;2024-01-30T05:22:34;22.00;53.10
30244;DHT22;64022;53.652;9.792;2024-01-30T05:25:02;21.90;52.90
30244;DHT22;64022;53.652;9.792;2024-01-30T05:27:29;22.00;53.00
30244;DHT22;64022;53.652;9.792;2024-01-30T05:30:01;22.00;53.00
30244;DHT22;64022;53.652;9.792;2024-01-30T05:32:29;22.00;53.10
30244;DHT22;64022;53.652;9.792;2024-01-30T05:34:57;21.90;53.00
30244;DHT22;64022;53.652;9.792;2024-01-30T05:37:23;21.90;53.20
30244;DHT22;64022;53.652;9.792;2024-01-30T05:39:50;22.00;53.00
30244;DHT22;64022;53.652;9.792;2024-01-30T05:42:16;22.00;53.10
30244;DHT22;64022;53.652;9.792;2024-01-30T05:44:42;22.00;53.00
30244;DHT22;64022;53.652;9.792;2024-01-30T05:47:10;22.00;53.10
30244;DHT22;64022;53.652;9.792;2024-01-30T05:49:38;21.90;53.00
30244;DHT22;64022;53.652;9.792;2024-01-30T05:52:04;22.00;53.10
30244;DHT22;64022;53.652;9.792;2024-01-30T05:54:31;21.90;53.10
30244;DHT22;64022;53.652;9.792;2024-01-30T05:56:57;22.00;53.10
30244;DHT22;64022;53.652;9.792;2024-01-30T05:59:24;21.90;52.90
30244;DHT22;64022;53.652;9.792;2024-01-30T06:01:50;21.90;52.80
30244;DHT22;64022;53.652;9.792;2024-01-30T06:04:17;21.90;52.90
30244;DHT22;64022;53.652;9.792;2024-01-30T06:06:43;22.00;53.00
30244;DHT22;64022;53.652;9.792;2024-01-30T06:09:09;21.90;52.90
30244;DHT22;64022;53.652;9.792;2024-01-30T06:11:36;21.90;53.00
30244;DHT22;64022;53.652;9.792;2024-01-30T06:14:02;21.90;53.00
30244;DHT22;64022;53.652;9.792;2024-01-30T06:16:29;21.90;52.90
30244;DHT22;64022;53.652;9.792;2024-01-30T06:19:02;21.90;53.00
30244;DHT22;64022;53.652;9.792;2024-01-30T06:21:29;21.90;53.00
30244;DHT22;64022;53.652;9.792;2024-01-30T06:23:57;21.90;53.00
30244;DHT22;64022;53.652;9.792;2024-01-30T06:26:26;21.90;53.00
30244;DHT22;64022;53.652;9.792;2024-01-30T06:28:52;21.90;52.80
30244;DHT22;64022;53.652;9.792;2024-01-30T06:31:18;21.90;53.50
30244;DHT22;64022;53.652;9.792;2024-01-30T06:33:47;21.90;52.80
30244;DHT22;64022;53.652;9.792;2024-01-30T06:36:14;21.90;53.00
30244;DHT22;64022;53.652;9.792;2024-01-30T06:38:42;21.90;52.90
30244;DHT22;64022;53.652;9.792;2024-01-30T06:41:08;21.90;52.90
30244;DHT22;64022;53.652;9.792;2024-01-30T06:43:35;21.90;53.00
30244;DHT22;64022;53.652;9.792;2024-01-30T06:46:04;21.90;52.80
30244;DHT22;64022;53.652;9.792;2024-01-30T06:48:31;21.90;53.00
30244;DHT22;64022;53.652;9.792;2024-01-30T06:50:57;22.00;52.90
30244;DHT22;64022;53.652;9.792;2024-01-30T06:53:24;21.90;52.70
30244;DHT22;64022;53.652;9.792;2024-01-30T06:55:52;21.90;52.70
30244;DHT22;64022;53.652;9.792;2024-01-30T06:58:19;21.90;52.70
30244;DHT22;64022;53.652;9.792;2024-01-30T07:00:46;21.90;52.80
30244;DHT22;64022;53.652;9.792;2024-01-30T07:03:14;21.90;52.90
30244;DHT22;64022;53.652;9.792;2024-01-30T07:05:43;21.90;52.90
30244;DHT22;64022;53.652;9.792;2024-01-30T07:08:10;21.90;52.90
30244;DHT22;64022;53.652;9.792;2024-01-30T07:10:36;21.90;52.80
30244;DHT22;64022;53.652;9.792;2024-01-30T07:13:02;21.90;52.80
30244;DHT22;64022;53.652;9.792;2024-01-30T07:15:31;21.90;52.80
30244;DHT22;64022;53.652;9.792;2024-01-30T07:17:57;21.90;52.80
30244;DHT22;64022;53.652;9.792;2024-01-30T07:20:23;21.90;52.70
30244;DHT22;64022;53.652;9.792;2024-01-30T07:22:51;21.90;52.80
30244;DHT22;64022;53.652;9.792;2024-01-30T07:25:18;21.90;52.80
30244;DHT22;64022;53.652;9.792;2024-01-30T07:27:48;21.90;52.60
30244;DHT22;64022;53.652;9.792;2024-01-30T07:30:14;21.90;52.70
30244;DHT22;64022;53.652;9.792;2024-01-30T07:32:42;21.90;52.80
30244;DHT22;64022;53.652;9.792;2024-01-30T07:35:09;21.90;52.70
30244;DHT22;64022;53.652;9.792;2024-01-30T07:37:36;21.90;52.50
30244;DHT22;64022;53.652;9.792;2024-01-30T07:40:03;21.90;52.50
30244;DHT22;64022;53.652;9.792;2024-01-30T07:42:31;21.90;53.10
30244;DHT22;64022;53.652;9.792;2024-01-30T07:44:57;21.90;52.60
30244;DHT22;64022;53.652;9.792;2024-01-30T07:47:23;21.90;52.60
30244;DHT22;64022;53.652;9.792;2024-01-30T07:49:52;21.90;52.70
30244;DHT22;64022;53.652;9.792;2024-01-30T07:52:20;21.90;52.60
30244;DHT22;64022;53.652;9.792;2024-01-30T07:57:32;21.90;52.60
30244;DHT22;64022;53.652;9.792;2024-01-30T07:59:58;21.90;52.60
30244;DHT22;64022;53.652;9.792;2024-01-30T08:02:24;22.00;52.60
30244;DHT22;64022;53.652;9.792;2024-01-30T08:04:55;21.90;52.60
30244;DHT22;64022;53.652;9.792;2024-01-30T08:07:21;21.90;52.60
30244;DHT22;64022;53.652;9.792;2024-01-30T08:09:51;21.90;52.60
30244;DHT22;64022;53.652;9.792;2024-01-30T08:12:17;21.90;52.50
30244;DHT22;64022;53.652;9.792;2024-01-30T08:14:45;21.90;52.40
30244;DHT22;64022;53.652;9.792;2024-01-30T08:17:12;21.90;52.70
30244;DHT22;64022;53.652;9.792;2024-01-30T08:19:37;21.90;52.40
30244;DHT22;64022;53.652;9.792;2024-01-30T08:22:03;21.90;52.50
30244;DHT22;64022;53.652;9.792;2024-01-30T08:24:31;21.90;52.70
30244;DHT22;64022;53.652;9.792;2024-01-30T08:26:57;21.90;52.70
30244;DHT22;64022;53.652;9.792;2024-01-30T08:29:25;21.90;52.70
30244;DHT22;64022;53.652;9.792;2024-01-30T08:31:51;21.90;52.60
30244;DHT22;64022;53.652;9.792;2024-01-30T08:34:19;21.90;52.50
30244;DHT22;64022;53.652;9.792;2024-01-30T08:36:46;21.90;52.50
30244;DHT22;64022;53.652;9.792;2024-01-30T08:39:13;21.90;52.50
30244;DHT22;64022;53.652;9.792;2024-01-30T08:41:41;21.90;52.60
30244;DHT22;64022;53.652;9.792;2024-01-30T08:44:08;22.00;52.60
30244;DHT22;64022;53.652;9.792;2024-01-30T08:46:34;21.90;52.40
30244;DHT22;64022;53.652;9.792;2024-01-30T08:49:04;21.90;52.50
30244;DHT22;64022;53.652;9.792;2024-01-30T08:51:31;22.00;52.80
30244;DHT22;64022;53.652;9.792;2024-01-30T08:53:57;22.00;52.60
30244;DHT22;64022;53.652;9.792;2024-01-30T08:56:24;21.90;52.50
30244;DHT22;64022;53.652;9.792;2024-01-30T08:58:51;21.90;52.50
30244;DHT22;64022;53.652;9.792;2024-01-30T09:01:18;21.90;52.50
30244;DHT22;64022;53.652;9.792;2024-01-30T09:03:44;21.90;52.50
30244;DHT22;64022;53.652;9.792;2024-01-30T09:06:13;21.90;52.60
30244;DHT22;64022;53.652;9.792;2024-01-30T09:08:39;21.90;52.70
30244;DHT22;64022;53.652;9.792;2024-01-30T09:11:12;21.90;52.50
30244;DHT22;64022;53.652;9.792;2024-01-30T09:13:39;21.90;52.40
30244;DHT22;64022;53.652;9.792;2024-01-30T09:16:05;21.90;53.00
30244;DHT22;64022;53.652;9.792;2024-01-30T09:18:31;21.90;52.70
30244;DHT22;64022;53.652;9.792;2024-01-30T09:21:00;21.90;52.60
30244;DHT22;64022;53.652;9.792;2024-01-30T09:23:29;22.00;52.60
30244;DHT22;64022;53.652;9.792;2024-01-30T09:25:55;22.00;52.70
30244;DHT22;64022;53.652;9.792;2024-01-30T09:28:22;21.90;52.70
30244;DHT22;64022;53.652;9.792;2024-01-30T09:30:49;21.90;52.50
30244;DHT22;64022;53.652;9.792;2024-01-30T09:33:16;21.90;52.60
30244;DHT22;64022;53.652;9.792;2024-01-30T09:35:42;21.90;52.40
30244;DHT22;64022;53.652;9.792;2024-01-30T09:38:16;22.00;52.40
30244;DHT22;64022;53.652;9.792;2024-01-30T09:40:44;22.00;52.40
30244;DHT22;64022;53.652;9.792;2024-01-30T09:43:11;22.00;52.50
30244;DHT22;64022;53.652;9.792;2024-01-30T09:45:41;21.90;52.50
30244;DHT22;64022;53.652;9.792;2024-01-30T09:48:08;22.00;52.70
30244;DHT22;64022;53.652;9.792;2024-01-30T09:50:35;22.00;52.40
30244;DHT22;64022;53.652;9.792;2024-01-30T09:53:04;21.90;52.60
30244;DHT22;64022;53.652;9.792;2024-01-30T09:55:32;22.00;52.50
30244;DHT22;64022;53.652;9.792;2024-01-30T09:57:59;22.00;52.40
30244;DHT22;64022;53.652;9.792;2024-01-30T10:00:26;21.90;52.40
30244;DHT22;64022;53.652;9.792;2024-01-30T10:02:53;22.00;52.40
30244;DHT22;64022;53.652;9.792;2024-01-30T10:05:19;22.00;52.40
30244;DHT22;64022;53.652;9.792;2024-01-30T10:07:55;22.00;52.40
30244;DHT22;64022;53.652;9.792;2024-01-30T10:10:22;22.00;52.30
30244;DHT22;64022;53.652;9.792;2024-01-30T10:12:52;21.90;52.40
30244;DHT22;64022;53.652;9.792;2024-01-30T10:15:18;22.00;52.40
30244;DHT22;64022;53.652;9.792;2024-01-30T10:17:47;22.00;52.40
30244;DHT22;64022;53.652;9.792;2024-01-30T10:20:13;21.90;52.40
30244;DHT22;64022;53.652;9.792;2024-01-30T10:22:40;22.00;52.50
30244;DHT22;64022;53.652;9.792;2024-01-30T10:25:09;21.90;52.50
30244;DHT22;64022;53.652;9.792;2024-01-30T10:27:35;22.00;52.50
30244;DHT22;64022;53.652;9.792;2024-01-30T10:30:07;22.00;52.50
30244;DHT22;64022;53.652;9.792;2024-01-30T10:32:35;22.00;52.40
30244;DHT22;64022;53.652;9.792;2024-01-30T10:35:02;22.00;52.50
30244;DHT22;64022;53.652;9.792;2024-01-30T10:37:30;22.00;52.30
30244;DHT22;64022;53.652;9.792;2024-01-30T10:39:57;22.00;52.30
30244;DHT22;64022;53.652;9.792;2024-01-30T10:42:28;22.00;52.40
30244;DHT22;64022;53.652;9.792;2024-01-30T10:45:00;22.00;52.30
30244;DHT22;64022;53.652;9.792;2024-01-30T10:47:30;22.00;52.30
30244;DHT22;64022;53.652;9.792;2024-01-30T10:49:56;22.00;52.30
30244;DHT22;64022;53.652;9.792;2024-01-30T10:52:24;22.00;52.40
30244;DHT22;64022;53.652;9.792;2024-01-30T10:54:54;21.90;52.30
30244;DHT22;64022;53.652;9.792;2024-01-30T10:57:25;22.00;52.20
30244;DHT22;64022;53.652;9.792;2024-01-30T10:59:53;22.00;52.40
30244;DHT22;64022;53.652;9.792;2024-01-30T11:02:21;22.00;52.50
30244;DHT22;64022;53.652;9.792;2024-01-30T11:04:59;21.90;52.20
30244;DHT22;64022;53.652;9.792;2024-01-30T11:07:28;21.90;52.50
30244;DHT22;64022;53.652;9.792;2024-01-30T11:12:31;21.90;52.30
30244;DHT22;64022;53.652;9.792;2024-01-30T11:15:03;21.90;52.40
30244;DHT22;64022;53.652;9.792;2024-01-30T11:17:42;22.00;52.40
30244;DHT22;64022;53.652;9.792;2024-01-30T11:20:10;21.90;52.30
30244;DHT22;64022;53.652;9.792;2024-01-30T11:22:40;22.00;52.30
30244;DHT22;64022;53.652;9.792;2024-01-30T11:25:06;21.90;52.30
30244;DHT22;64022;53.652;9.792;2024-01-30T11:27:38;22.00;52.80
30244;DHT22;64022;53.652;9.792;2024-01-30T11:30:06;22.00;52.40
30244;DHT22;64022;53.652;9.792;2024-01-30T11:32:34;21.90;52.30
30244;DHT22;64022;53.652;9.792;2024-01-30T11:35:00;21.90;52.30
30244;DHT22;64022;53.652;9.792;2024-01-30T11:37:26;21.90;52.40
30244;DHT22;64022;53.652;9.792;2024-01-30T11:39:54;22.00;52.40
30244;DHT22;64022;53.652;9.792;2024-01-30T11:42:23;21.90;52.20
30244;DHT22;64022;53.652;9.792;2024-01-30T11:44:51;21.90;52.20
30244;DHT22;64022;53.652;9.792;2024-01-30T11:47:16;22.00;52.30
30244;DHT22;64022;53.652;9.792;2024-01-30T11:49:43;22.00;52.40
30244;DHT22;64022;53.652;9.792;2024-01-30T11:52:09;21.90;52.30
30244;DHT22;64022;53.652;9.792;2024-01-30T11:54:39;21.90;52.20
30244;DHT22;64022;53.652;9.792;2024-01-30T11:57:06;22.00;52.40
30244;DHT22;64022;53.652;9.792;2024-01-30T11:59:32;22.00;52.30
30244;DHT22;64022;53.652;9.792;2024-01-30T12:01:58;22.00;52.30
30244;DHT22;64022;53.652;9.792;2024-01-30T12:04:27;21.90;52.30
30244;DHT22;64022;53.652;9.792;2024-01-30T12:06:54;21.90;52.20
30244;DHT22;64022;53.652;9.792;2024-01-30T12:09:19;22.00;52.40
30244;DHT22;64022;53.652;9.792;2024-01-30T12:11:46;21.90;52.30
30244;DHT22;64022;53.652;9.792;2024-01-30T12:14:13;21.90;52.20
30244;DHT22;64022;53.652;9.792;2024-01-30T12:16:40;21.90;52.10
30244;DHT22;64022;53.652;9.792;2024-01-30T12:19:07;21.90;52.30
30244;DHT22;64022;53.652;9.792;2024-01-30T12:21:35;22.00;52.20
30244;DHT22;64022;53.652;9.792;2024-01-30T12:24:02;22.00;52.30
30244;DHT22;64022;53.652;9.792;2024-01-30T12:26:28;22.00;52.20
30244;DHT22;64022;53.652;9.792;2024-01-30T12:28:54;22.00;52.30
30244;DHT22;64022;53.652;9.792;2024-01-30T12:31:26;22.00;52.70
30244;DHT22;64022;53.652;9.792;2024-01-30T12:33:53;22.00;52.10
30244;DHT22;64022;53.652;9.792;2024-01-30T12:36:21;22.00;52.20
30244;DHT22;64022;53.652;9.792;2024-01-30T12:38:48;22.00;52.30
30244;DHT22;64022;53.652;9.792;2024-01-30T12:41:16;22.00;52.30
30244;DHT22;64022;53.652;9.792;2024-01-30T12:43:42;22.00;52.20
30244;DHT22;64022;53.652;9.792;2024-01-30T12:46:08;22.00;52.30
30244;DHT22;64022;53.652;9.792;2024-01-30T12:48:35;22.00;52.30
30244;DHT22;64022;53.652;9.792;2024-01-30T12:51:02;22.00;52.10
30244;DHT22;64022;53.652;9.792;2024-01-30T12:53:31;22.00;52.30
30244;DHT22;64022;53.652;9.792;2024-01-30T12:55:58;22.00;52.30
30244;DHT22;64022;53.652;9.792;2024-01-30T12:58:25;22.00;52.20
30244;DHT22;64022;53.652;9.792;2024-01-30T13:00:52;22.00;52.20
30244;DHT22;64022;53.652;9.792;2024-01-30T13:03:20;21.90;52.10
30244;DHT22;64022;53.652;9.792;2024-01-30T13:05:46;22.00;52.30
30244;DHT22;64022;53.652;9.792;2024-01-30T13:08:11;21.90;52.10
30244;DHT22;64022;53.652;9.792;2024-01-30T13:10:38;22.00;52.30
30244;DHT22;64022;53.652;9.792;2024-01-30T13:13:07;22.00;52.10
30244;DHT22;64022;53.652;9.792;2024-01-30T13:15:34;21.90;52.30
30244;DHT22;64022;53.652;9.792;2024-01-30T13:18:00;22.00;52.10
30244;DHT22;64022;53.652;9.792;2024-01-30T13:20:26;21.90;52.00
30244;DHT22;64022;53.652;9.792;2024-01-30T13:22:52;21.90;52.20
30244;DHT22;64022;53.652;9.792;2024-01-30T13:25:19;22.00;52.30
30244;DHT22;64022;53.652;9.792;2024-01-30T13:27:46;21.90;52.30
30244;DHT22;64022;53.652;9.792;2024-01-30T13:30:13;21.90;52.30
30244;DHT22;64022;53.652;9.792;2024-01-30T13:32:41;22.00;52.40
30244;DHT22;64022;53.652;9.792;2024-01-30T13:35:09;21.90;52.30
30244;DHT22;64022;53.652;9.792;2024-01-30T13:37:37;21.90;52.40
30244;DHT22;64022;53.652;9.792;2024-01-30T13:40:04;22.00;52.40
30244;DHT22;64022;53.652;9.792;2024-01-30T13:42:34;21.90;52.30
30244;DHT22;64022;53.652;9.792;2024-01-30T13:45:01;22.00;52.20
30244;DHT22;64022;53.652;9.792;2024-01-30T13:47:30;22.00;52.20
30244;DHT22;64022;53.652;9.792;2024-01-30T13:49:56;22.00;52.20
30244;DHT22;64022;53.652;9.792;2024-01-30T13:52:23;21.90;52.20
30244;DHT22;64022;53.652;9.792;2024-01-30T13:54:48;22.00;52.30
30244;DHT22;64022;53.652;9.792;2024-01-30T13:57:14;22.00;52.20
30244;DHT22;64022;53.652;9.792;2024-01-30T13:59:40;22.00;52.20
30244;DHT22;64022;53.652;9.792;2024-01-30T14:02:06;22.00;52.10
30244;DHT22;64022;53.652;9.792;2024-01-30T14:04:39;22.00;52.20
30244;DHT22;64022;53.652;9.792;2024-01-30T14:07:07;22.00;52.20
30244;DHT22;64022;53.652;9.792;2024-01-30T14:09:34;22.00;52.20
30244;DHT22;64022;53.652;9.792;2024-01-30T14:12:02;22.00;52.30
30244;DHT22;64022;53.652;9.792;2024-01-30T14:14:29;22.00;52.30
30244;DHT22;64022;53.652;9.792;2024-01-30T14:16:55;22.00;52.30
30244;DHT22;64022;53.652;9.792;2024-01-30T14:19:23;22.00;52.30
30244;DHT22;64022;53.652;9.792;2024-01-30T14:21:51;22.00;52.30
30244;DHT22;64022;53.652;9.792;2024-01-30T14:24:18;22.00;52.30
30244;DHT22;64022;53.652;9.792;2024-01-30T14:26:44;22.00;52.30
30244;DHT22;64022;53.652;9.792;2024-01-30T14:29:12;22.00;52.30
30244;DHT22;64022;53.652;9.792;2024-01-30T14:31:40;22.00;52.30
30244;DHT22;64022;53.652;9.792;2024-01-30T14:34:07;22.00;52.40
30244;DHT22;64022;53.652;9.792;2024-01-30T14:36:34;22.00;52.50
30244;DHT22;64022;53.652;9.792;2024-01-30T14:39:01;22.00;52.40
30244;DHT22;64022;53.652;9.792;2024-01-30T14:41:28;22.00;52.50
30244;DHT22;64022;53.652;9.792;2024-01-30T14:43:55;22.00;52.40
30244;DHT22;64022;53.652;9.792;2024-01-30T14:46:21;22.00;52.40
30244;DHT22;64022;53.652;9.792;2024-01-30T14:48:47;22.00;52.40
30244;DHT22;64022;53.652;9.792;2024-01-30T14:51:13;22.00;52.50
30244;DHT22;64022;53.652;9.792;2024-01-30T14:53:41;22.00;52.50
30244;DHT22;64022;53.652;9.792;2024-01-30T14:56:08;22.00;52.40
30244;DHT22;64022;53.652;9.792;2024-01-30T14:58:35;22.00;52.60
30244;DHT22;64022;53.652;9.792;2024-01-30T15:01:02;22.00;52.60
30244;DHT22;64022;53.652;9.792;2024-01-30T15:03:30;22.00;52.60
30244;DHT22;64022;53.652;9.792;2024-01-30T15:05:56;22.00;52.60
30244;DHT22;64022;53.652;9.792;2024-01-30T15:08:25;22.00;52.60
30244;DHT22;64022;53.652;9.792;2024-01-30T15:10:52;22.00;52.60
30244;DHT22;64022;53.652;9.792;2024-01-30T15:13:20;22.00;52.50
30244;DHT22;64022;53.652;9.792;2024-01-30T15:15:46;22.00;52.70
30244;DHT22;64022;53.652;9.792;2024-01-30T15:18:12;22.00;52.60
30244;DHT22;64022;53.652;9.792;2024-01-30T15:20:38;22.00;52.60
30244;DHT22;64022;53.652;9.792;2024-01-30T15:23:05;22.00;52.60
30244;DHT22;64022;53.652;9.792;2024-01-30T15:25:31;22.00;52.80
30244;DHT22;64022;53.652;9.792;2024-01-30T15:27:57;22.00;52.70
30244;DHT22;64022;53.652;9.792;2024-01-30T15:30:26;22.00;52.70
30244;DHT22;64022;53.652;9.792;2024-01-30T15:32:52;22.00;52.70
30244;DHT22;64022;53.652;9.792;2024-01-30T15:35:21;22.00;52.70